createdAt,value
2023-01-09T00:01:56.848Z,73.30
2023-01-09T00:04:27.880Z,73.70
2023-01-09T00:06:58.663Z,73.04
2023-01-09T00:09:29.461Z,73.84
2023-01-09T00:12:00.802Z,74.01
2023-01-09T00:14:31.449Z,73.49
2023-01-09T00:17:02.264Z,73.93
2023-01-09T00:19:32.883Z,73.83
2023-01-09T00:22:04.115Z,74.13
2023-01-09T00:24:34.987Z,74.56
2023-01-09T00:27:05.985Z,73.82
2023-01-09T00:29:36.596Z,74.61
2023-01-09T00:32:11.782Z,74.27
2023-01-09T00:34:44.509Z,74.30
2023-01-09T00:37:15.432Z,75.11
2023-01-09T00:39:46.434Z,74.65
2023-01-09T00:42:20.438Z,74.83
2023-01-09T00:44:59.564Z,75.31
2023-01-09T00:47:33.121Z,74.98
2023-01-09T00:50:07.102Z,74.97
2023-01-09T00:52:42.686Z,75.41
2023-01-09T00:55:14.776Z,74.53
2023-01-09T00:57:45.596Z,74.70
2023-01-09T01:00:17.322Z,74.29
2023-01-09T01:02:48.181Z,73.95
2023-01-09T01:05:37.026Z,73.86
2023-01-09T01:08:17.437Z,73.66
2023-01-09T01:10:49.163Z,73.79
2023-01-09T01:13:20.064Z,73.24
2023-01-09T01:15:50.759Z,73.11
2023-01-09T01:18:21.760Z,73.34
2023-01-09T01:20:52.868Z,73.34
2023-01-09T01:23:23.504Z,73.35
2023-01-09T01:25:54.318Z,73.35
2023-01-09T01:28:25.064Z,72.81
2023-01-09T01:30:55.768Z,72.83
2023-01-09T01:33:26.983Z,72.84
2023-01-09T01:36:07.934Z,72.83
2023-01-09T01:38:39.053Z,73.22
2023-01-09T01:41:09.673Z,73.23
2023-01-09T01:43:54.059Z,72.90
2023-01-09T01:46:25.335Z,72.73
2023-01-09T01:49:14.304Z,72.65
2023-01-09T01:51:47.247Z,72.80
2023-01-09T01:54:23.832Z,72.81
2023-01-09T01:56:58.450Z,72.34
2023-01-09T01:59:36.850Z,72.42
2023-01-09T02:02:07.995Z,72.66
2023-01-09T02:04:42.780Z,72.64
2023-01-09T02:07:14.123Z,72.08
2023-01-09T02:09:46.202Z,72.12
2023-01-09T02:12:18.742Z,72.72
2023-01-09T02:14:50.673Z,72.39
2023-01-09T02:17:27.555Z,71.92
2023-01-09T02:20:08.597Z,71.92
2023-01-09T02:22:51.747Z,71.97
2023-01-09T02:25:25.566Z,71.88
2023-01-09T02:27:59.404Z,72.01
2023-01-09T02:30:35.829Z,72.35
2023-01-09T02:33:09.229Z,72.28
2023-01-09T02:35:46.508Z,72.25
2023-01-09T02:38:26.387Z,72.07
2023-01-09T02:41:15.695Z,71.97
2023-01-09T02:43:47.255Z,72.02
2023-01-09T02:46:23.416Z,71.97
2023-01-09T02:48:54.991Z,71.65
2023-01-09T02:51:37.623Z,72.16
2023-01-09T02:54:24.198Z,71.96
2023-01-09T02:57:04.411Z,71.95
2023-01-09T02:59:38.730Z,71.89
2023-01-09T03:02:25.086Z,71.48
2023-01-09T03:05:02.029Z,71.73
2023-01-09T03:07:36.569Z,71.64
2023-01-09T03:10:25.318Z,71.63
2023-01-09T03:12:58.856Z,71.08
2023-01-09T03:15:32.578Z,71.40
2023-01-09T03:18:04.077Z,71.38
2023-01-09T03:20:35.211Z,71.29
2023-01-09T03:23:07.423Z,71.32
2023-01-09T03:25:38.161Z,71.07
2023-01-09T03:28:10.622Z,70.97
2023-01-09T03:30:41.190Z,71.01
2023-01-09T03:33:12.142Z,70.34
2023-01-09T03:35:42.732Z,70.23
2023-01-09T03:38:13.681Z,70.67
2023-01-09T03:40:47.575Z,70.01
2023-01-09T03:43:18.235Z,70.32
2023-01-09T03:45:50.218Z,69.89
2023-01-09T03:48:21.345Z,69.83
2023-01-09T03:50:52.673Z,69.83
2023-01-09T03:53:24.815Z,70.00
2023-01-09T03:55:57.145Z,69.71
2023-01-09T03:58:29.169Z,69.26
2023-01-09T04:01:05.283Z,69.31
2023-01-09T04:03:36.133Z,69.47
2023-01-09T04:06:06.979Z,69.50
2023-01-09T04:08:37.683Z,69.12
2023-01-09T04:11:08.357Z,69.11
2023-01-09T04:13:39.193Z,69.29
2023-01-09T04:16:10.375Z,69.19
2023-01-09T04:18:41.121Z,69.28
2023-01-09T04:21:11.841Z,68.49
2023-01-09T04:23:42.752Z,68.41
2023-01-09T04:26:13.784Z,68.88
2023-01-09T04:28:44.680Z,68.46
2023-01-09T04:31:15.670Z,68.31
2023-01-09T04:33:46.999Z,68.43
2023-01-09T04:36:17.929Z,68.58
2023-01-09T04:38:48.730Z,68.02
2023-01-09T04:41:39.382Z,68.36
2023-01-09T04:44:10.053Z,68.01
2023-01-09T04:46:40.837Z,67.71
2023-01-09T04:49:11.475Z,67.41
2023-01-09T04:51:42.178Z,67.38
2023-01-09T04:54:13.111Z,67.40
2023-01-09T04:56:43.985Z,67.70
2023-01-09T04:59:14.691Z,67.18
2023-01-09T05:01:45.501Z,67.58
2023-01-09T05:04:16.443Z,66.98
2023-01-09T05:06:47.504Z,67.40
2023-01-09T05:09:18.208Z,67.36
2023-01-09T05:11:48.977Z,67.75
2023-01-09T05:14:20.163Z,67.08
2023-01-09T05:16:50.939Z,67.40
2023-01-09T05:19:22.590Z,67.19
2023-01-09T05:21:53.650Z,67.36
2023-01-09T05:24:24.349Z,67.45
2023-01-09T05:26:55.003Z,67.57
2023-01-09T05:29:25.603Z,67.61
2023-01-09T05:31:56.389Z,67.57
2023-01-09T05:34:27.389Z,67.34
2023-01-09T05:36:58.073Z,67.41
2023-01-09T05:39:28.704Z,67.82
2023-01-09T05:41:59.430Z,67.27
2023-01-09T05:44:30.165Z,67.63
2023-01-09T05:47:02.736Z,67.28
2023-01-09T05:49:33.647Z,67.96
2023-01-09T05:52:04.660Z,67.86
2023-01-09T05:54:35.219Z,67.73
2023-01-09T05:57:05.931Z,68.02
2023-01-09T05:59:36.614Z,67.53
2023-01-09T06:02:07.351Z,67.77
2023-01-09T06:04:38.281Z,67.94
2023-01-09T06:07:09.143Z,67.31
2023-01-09T06:09:40.072Z,67.22
2023-01-09T06:12:10.752Z,67.28
2023-01-09T06:14:41.557Z,67.37
2023-01-09T06:17:13.293Z,67.64
2023-01-09T06:19:43.831Z,67.38
2023-01-09T06:22:14.647Z,67.20
2023-01-09T06:24:45.576Z,67.13
2023-01-09T06:27:16.535Z,67.47
2023-01-09T06:29:47.557Z,67.61
2023-01-09T06:32:18.439Z,67.62
2023-01-09T06:34:49.051Z,67.24
2023-01-09T06:37:20.016Z,67.34
2023-01-09T06:39:50.951Z,67.45
2023-01-09T06:42:21.938Z,67.21
2023-01-09T06:44:53.591Z,67.37
2023-01-09T06:47:25.101Z,66.99
2023-01-09T06:49:56.146Z,67.07
2023-01-09T06:52:26.896Z,67.31
2023-01-09T06:54:57.501Z,66.96
2023-01-09T06:57:28.970Z,66.75
2023-01-09T06:59:59.800Z,66.55
2023-01-09T07:02:30.503Z,67.11
2023-01-09T07:05:01.130Z,67.06
2023-01-09T07:07:32.061Z,66.58
2023-01-09T07:10:02.678Z,66.83
2023-01-09T07:12:33.464Z,66.84
2023-01-09T07:15:04.316Z,66.54
2023-01-09T07:17:35.088Z,66.62
2023-01-09T07:20:05.972Z,66.83
2023-01-09T07:22:36.751Z,66.29
2023-01-09T07:25:07.622Z,66.48
2023-01-09T07:27:38.351Z,66.14
2023-01-09T07:30:09.549Z,66.25
2023-01-09T07:32:41.929Z,66.37
2023-01-09T07:35:12.783Z,66.19
2023-01-09T07:37:43.595Z,66.09
2023-01-09T07:40:14.502Z,65.94
2023-01-09T07:42:45.370Z,65.91
2023-01-09T07:45:16.100Z,65.81
2023-01-09T07:47:48.030Z,65.89
2023-01-09T07:50:18.701Z,65.92
2023-01-09T07:52:50.084Z,66.07
2023-01-09T07:55:20.744Z,65.76
2023-01-09T07:57:52.016Z,65.77
2023-01-09T08:00:22.726Z,65.75
2023-01-09T08:02:54.952Z,66.22
2023-01-09T08:05:26.081Z,66.02
2023-01-09T08:07:56.743Z,65.73
2023-01-09T08:10:27.431Z,65.63
2023-01-09T08:12:58.453Z,66.10
2023-01-09T08:15:29.233Z,65.99
2023-01-09T08:18:00.138Z,65.71
2023-01-09T08:20:31.236Z,65.20
2023-01-09T08:23:01.941Z,65.37
2023-01-09T08:25:32.752Z,65.63
2023-01-09T08:28:03.418Z,65.42
2023-01-09T08:30:34.176Z,65.59
2023-01-09T08:33:04.894Z,65.68
2023-01-09T08:35:36.180Z,65.63
2023-01-09T08:38:06.839Z,65.36
2023-01-09T08:40:37.530Z,65.93
2023-01-09T08:43:26.286Z,65.74
2023-01-09T08:46:15.557Z,65.97
2023-01-09T08:48:46.430Z,65.52
2023-01-09T08:51:17.276Z,65.71
2023-01-09T08:53:48.126Z,65.69
2023-01-09T08:56:19.151Z,65.80
2023-01-09T08:58:49.754Z,65.96
2023-01-09T09:01:20.466Z,66.52
2023-01-09T09:03:51.154Z,66.67
2023-01-09T09:06:21.868Z,67.10
2023-01-09T09:08:52.443Z,67.72
2023-01-09T09:11:23.113Z,68.27
2023-01-09T09:13:53.756Z,67.98
2023-01-09T09:16:24.574Z,68.47
2023-01-09T09:18:55.689Z,68.77
2023-01-09T09:21:26.453Z,69.19
2023-01-09T09:23:59.329Z,68.86
2023-01-09T09:26:30.432Z,68.33
2023-01-09T09:29:01.052Z,68.16
2023-01-09T09:31:32.222Z,68.84
2023-01-09T09:34:02.936Z,68.87
2023-01-09T09:36:34.030Z,69.25
2023-01-09T09:39:05.102Z,69.61
2023-01-09T09:42:00.105Z,69.23
2023-01-09T09:44:53.903Z,70.08
2023-01-09T09:47:30.763Z,70.00
2023-01-09T09:50:08.613Z,70.61
2023-01-09T09:52:45.086Z,70.53
2023-01-09T09:55:39.988Z,71.12
2023-01-09T09:58:23.691Z,70.77
2023-01-09T10:00:55.316Z,70.78
2023-01-09T10:03:33.910Z,71.26
2023-01-09T10:06:08.026Z,71.74
2023-01-09T10:08:47.490Z,71.15
2023-01-09T10:11:22.700Z,71.66
2023-01-09T10:14:22.838Z,72.25
2023-01-09T10:17:00.788Z,72.54
2023-01-09T10:19:47.142Z,73.15
2023-01-09T10:22:17.823Z,73.21
2023-01-09T10:24:57.519Z,72.77
2023-01-09T10:27:46.278Z,73.23
2023-01-09T10:30:26.028Z,72.74
2023-01-09T10:32:57.735Z,72.77
2023-01-09T10:35:47.961Z,73.44
2023-01-09T10:38:25.259Z,73.55
2023-01-09T10:41:19.429Z,74.10
2023-01-09T10:43:53.285Z,74.76
2023-01-09T10:46:33.127Z,74.86
2023-01-09T10:49:07.197Z,75.24
2023-01-09T10:51:46.250Z,76.12
2023-01-09T10:54:20.319Z,76.40
2023-01-09T10:57:23.073Z,75.50
2023-01-09T10:59:53.726Z,74.55
2023-01-09T11:02:29.675Z,74.75
2023-01-09T11:05:00.367Z,74.18
2023-01-09T11:07:39.768Z,73.72
2023-01-09T11:10:13.283Z,73.38
2023-01-09T11:12:44.705Z,73.57
2023-01-09T11:15:18.139Z,73.35
2023-01-09T11:17:49.748Z,73.35
2023-01-09T11:20:20.357Z,72.69
2023-01-09T11:22:52.599Z,73.02
2023-01-09T11:25:24.841Z,72.46
2023-01-09T11:28:10.197Z,72.75
2023-01-09T11:30:54.428Z,72.66
2023-01-09T11:33:26.667Z,72.56
2023-01-09T11:36:00.135Z,71.93
2023-01-09T11:38:31.798Z,71.94
2023-01-09T11:41:03.668Z,72.10
2023-01-09T11:43:41.079Z,71.82
2023-01-09T11:46:14.336Z,72.18
2023-01-09T11:48:59.135Z,72.05
2023-01-09T11:51:34.765Z,72.17
2023-01-09T11:54:14.815Z,72.26
2023-01-09T11:56:45.975Z,71.97
2023-01-09T11:59:18.805Z,72.64
2023-01-09T12:02:01.807Z,72.66
2023-01-09T12:04:35.579Z,72.67
2023-01-09T12:07:32.326Z,73.20
2023-01-09T12:10:21.387Z,72.93
2023-01-09T12:12:52.613Z,72.75
2023-01-09T12:15:29.511Z,73.45
2023-01-09T12:18:06.959Z,73.27
2023-01-09T12:20:49.695Z,73.75
2023-01-09T12:23:23.592Z,73.77
2023-01-09T12:26:12.737Z,73.45
2023-01-09T12:28:43.427Z,74.26
2023-01-09T12:31:46.735Z,75.00
2023-01-09T12:34:52.922Z,75.30
2023-01-09T12:37:24.676Z,75.04
2023-01-09T12:39:55.623Z,74.95
2023-01-09T12:42:29.394Z,75.86
2023-01-09T12:45:25.253Z,75.62
2023-01-09T12:48:03.438Z,76.58
2023-01-09T12:50:45.829Z,76.53
2023-01-09T12:53:21.652Z,76.44
2023-01-09T12:55:54.995Z,76.92
2023-01-09T12:58:33.013Z,76.40
2023-01-09T13:01:07.015Z,77.33
2023-01-09T13:03:42.854Z,77.42
2023-01-09T13:06:16.642Z,76.87
2023-01-09T13:08:52.014Z,76.61
2023-01-09T13:11:49.532Z,76.43
2023-01-09T13:14:25.281Z,76.70
2023-01-09T13:16:58.346Z,76.23
2023-01-09T13:19:31.136Z,76.53
2023-01-09T13:22:02.311Z,77.39
2023-01-09T13:24:39.541Z,77.08
2023-01-09T13:27:18.452Z,76.98
2023-01-09T13:30:00.675Z,76.57
2023-01-09T13:32:31.507Z,76.81
2023-01-09T13:35:05.498Z,76.29
2023-01-09T13:37:38.661Z,76.61
2023-01-09T13:40:26.783Z,76.50
2023-01-09T13:43:07.564Z,76.61
2023-01-09T13:45:39.844Z,76.12
2023-01-09T13:48:37.450Z,76.23
2023-01-09T13:51:32.480Z,75.89
2023-01-09T13:54:04.499Z,75.65
2023-01-09T13:56:57.659Z,75.50
2023-01-09T13:59:30.497Z,75.43
2023-01-09T14:02:01.382Z,73.84
2023-01-09T14:04:52.433Z,70.43
2023-01-09T14:07:27.411Z,68.06
2023-01-09T14:10:02.222Z,67.49
2023-01-09T14:12:40.026Z,67.17
2023-01-09T14:15:26.922Z,66.23
2023-01-09T14:18:04.942Z,65.59
2023-01-09T14:20:45.505Z,65.16
2023-01-09T14:26:23.681Z,62.85
2023-01-09T14:29:14.413Z,62.18
2023-01-09T14:31:45.057Z,61.25
2023-01-09T14:34:37.426Z,61.48
2023-01-09T14:37:12.957Z,61.76
2023-01-09T14:39:46.203Z,60.49
2023-01-09T14:42:24.109Z,60.09
2023-01-09T14:45:15.030Z,59.68
2023-01-09T14:47:48.523Z,59.35
2023-01-09T14:50:19.195Z,59.21
2023-01-09T14:53:00.781Z,59.53
2023-01-09T14:55:52.228Z,58.79
2023-01-09T14:58:27.483Z,58.50
2023-01-09T15:01:06.476Z,58.10
2023-01-09T15:03:40.451Z,57.56
2023-01-09T15:06:37.139Z,56.79
2023-01-09T15:09:11.053Z,56.47
2023-01-09T15:11:42.203Z,56.06
2023-01-09T15:14:28.636Z,56.03
2023-01-09T15:16:59.794Z,56.37
2023-01-09T15:19:31.533Z,55.49
2023-01-09T15:22:04.357Z,56.17
2023-01-09T15:24:36.374Z,55.67
2023-01-09T15:27:12.932Z,55.43
2023-01-09T15:29:43.748Z,53.64
2023-01-09T15:32:20.243Z,52.69
2023-01-09T15:34:51.459Z,51.25
2023-01-09T15:37:27.650Z,50.74
2023-01-09T15:40:00.332Z,50.31
2023-01-09T15:42:51.065Z,50.27
2023-01-09T15:45:29.719Z,49.09
2023-01-09T15:48:18.680Z,48.42
2023-01-09T15:50:50.558Z,48.20
2023-01-09T15:53:23.369Z,48.35
2023-01-09T15:56:09.510Z,48.01
2023-01-09T15:58:41.396Z,47.84
2023-01-09T16:01:14.803Z,47.93
2023-01-09T16:03:45.762Z,47.81
2023-01-09T16:06:19.877Z,47.31
2023-01-09T16:08:57.507Z,47.35
2023-01-09T16:11:33.059Z,49.18
2023-01-09T16:14:19.036Z,51.14
2023-01-09T16:16:50.150Z,53.92
2023-01-09T16:19:39.073Z,56.12
2023-01-09T16:22:29.240Z,57.61
2023-01-09T16:25:01.846Z,58.40
2023-01-09T16:27:34.792Z,60.49
2023-01-09T16:30:07.434Z,58.43
2023-01-09T16:32:47.402Z,56.19
2023-01-09T16:35:19.518Z,55.63
2023-01-09T16:37:50.271Z,54.75
2023-01-09T16:40:23.764Z,54.31
2023-01-09T16:43:04.754Z,53.27
2023-01-09T16:45:39.606Z,53.34
2023-01-09T16:48:15.807Z,54.71
2023-01-09T16:50:46.868Z,56.85
2023-01-09T16:53:19.136Z,58.03
2023-01-09T16:55:50.690Z,59.37
2023-01-09T16:58:26.642Z,60.83
2023-01-09T17:00:57.411Z,61.39
2023-01-09T17:03:28.374Z,60.78
2023-01-09T17:06:01.589Z,58.72
2023-01-09T17:08:34.085Z,57.94
2023-01-09T17:11:05.792Z,56.56
2023-01-09T17:13:36.338Z,55.72
2023-01-09T17:16:07.645Z,55.29
2023-01-09T17:18:38.664Z,54.80
2023-01-09T17:21:16.227Z,54.29
2023-01-09T17:23:47.015Z,55.66
2023-01-09T17:26:37.103Z,57.18
2023-01-09T17:29:08.244Z,59.25
2023-01-09T17:31:39.572Z,59.99
2023-01-09T17:34:10.486Z,61.25
2023-01-09T17:36:41.249Z,62.40
2023-01-09T17:39:15.019Z,61.60
2023-01-09T17:41:45.845Z,59.44
2023-01-09T17:44:16.751Z,57.87
2023-01-09T17:46:47.475Z,56.73
2023-01-09T17:49:19.840Z,56.50
2023-01-09T17:51:50.594Z,55.43
2023-01-09T17:54:21.402Z,56.29
2023-01-09T17:56:53.273Z,58.30
2023-01-09T17:59:24.752Z,59.59
2023-01-09T18:01:55.824Z,60.36
2023-01-09T18:04:26.564Z,61.74
2023-01-09T18:06:57.225Z,62.95
2023-01-09T18:09:27.882Z,63.01
2023-01-09T18:11:58.563Z,61.32
2023-01-09T18:14:29.196Z,59.33
2023-01-09T18:17:00.042Z,57.96
2023-01-09T18:19:31.462Z,56.72
2023-01-09T18:22:02.647Z,55.93
2023-01-09T18:24:33.261Z,55.76
2023-01-09T18:27:03.901Z,57.76
2023-01-09T18:29:34.504Z,59.45
2023-01-09T18:32:05.246Z,60.57
2023-01-09T18:34:35.894Z,61.51
2023-01-09T18:37:06.866Z,62.18
2023-01-09T18:39:37.448Z,63.53
2023-01-09T18:42:08.238Z,64.03
2023-01-09T18:44:38.893Z,61.70
2023-01-09T18:47:09.878Z,60.11
2023-01-09T18:49:40.509Z,58.88
2023-01-09T18:52:11.542Z,57.86
2023-01-09T18:54:44.164Z,57.07
2023-01-09T18:57:14.851Z,56.58
2023-01-09T18:59:45.543Z,58.00
2023-01-09T19:02:22.003Z,59.95
2023-01-09T19:04:52.925Z,61.96
2023-01-09T19:07:23.942Z,62.60
2023-01-09T19:09:54.717Z,63.15
2023-01-09T19:12:25.889Z,63.75
2023-01-09T19:14:58.775Z,64.47
2023-01-09T19:17:29.523Z,62.10
2023-01-09T19:20:00.142Z,60.76
2023-01-09T19:22:31.093Z,59.72
2023-01-09T19:25:03.889Z,58.52
2023-01-09T19:27:34.716Z,57.54
2023-01-09T19:30:05.551Z,59.13
2023-01-09T19:32:36.595Z,60.84
2023-01-09T19:35:07.430Z,63.03
2023-01-09T19:37:38.730Z,64.04
2023-01-09T19:40:09.667Z,65.76
2023-01-09T19:42:40.418Z,65.54
2023-01-09T19:45:11.183Z,65.44
2023-01-09T19:47:42.113Z,65.24
2023-01-09T19:50:13.430Z,62.84
2023-01-09T19:52:44.965Z,61.35
2023-01-09T19:55:16.217Z,60.32
2023-01-09T19:57:48.280Z,59.11
2023-01-09T20:00:19.045Z,60.90
2023-01-09T20:02:51.059Z,62.94
2023-01-09T20:05:21.860Z,64.02
2023-01-09T20:07:59.067Z,65.52
2023-01-09T20:10:29.616Z,65.92
2023-01-09T20:13:00.247Z,66.17
2023-01-09T20:15:31.329Z,67.17
2023-01-09T20:18:03.375Z,67.65
2023-01-09T20:20:34.946Z,64.96
2023-01-09T20:23:05.603Z,63.29
2023-01-09T20:25:36.988Z,61.68
2023-01-09T20:28:07.979Z,61.18
2023-01-09T20:30:42.170Z,61.51
2023-01-09T20:33:13.468Z,63.20
2023-01-09T20:35:44.117Z,65.31
2023-01-09T20:38:14.949Z,65.61
2023-01-09T20:40:45.658Z,65.67
2023-01-09T20:43:16.917Z,66.39
2023-01-09T20:45:47.794Z,66.52
2023-01-09T20:48:18.512Z,67.47
2023-01-09T20:50:49.304Z,67.81
2023-01-09T20:53:20.073Z,68.87
2023-01-09T20:55:50.825Z,65.40
2023-01-09T20:58:21.950Z,64.10
2023-01-09T21:00:52.746Z,62.62
2023-01-09T21:03:24.808Z,61.73
2023-01-09T21:05:55.385Z,61.58
2023-01-09T21:08:26.184Z,63.66
2023-01-09T21:11:00.111Z,65.64
2023-01-09T21:13:31.300Z,66.63
2023-01-09T21:16:03.049Z,66.91
2023-01-09T21:18:34.007Z,66.70
2023-01-09T21:21:09.520Z,67.40
2023-01-09T21:23:43.236Z,67.51
2023-01-09T21:26:15.517Z,68.20
2023-01-09T21:28:50.480Z,66.12
2023-01-09T21:31:22.740Z,64.30
2023-01-09T21:33:55.906Z,63.22
2023-01-09T21:36:26.551Z,61.78
2023-01-09T21:38:59.337Z,62.37
2023-01-09T21:41:48.016Z,64.22
2023-01-09T21:44:36.811Z,66.11
2023-01-09T21:47:07.438Z,65.91
2023-01-09T21:49:41.405Z,66.16
2023-01-09T21:52:15.417Z,67.13
2023-01-09T21:54:46.509Z,67.39
2023-01-09T21:57:17.608Z,67.97
2023-01-09T21:59:48.453Z,68.82
2023-01-09T22:02:19.585Z,70.37
2023-01-09T22:04:50.818Z,68.00
2023-01-09T22:07:22.415Z,66.14
2023-01-09T22:09:53.446Z,64.62
2023-01-09T22:12:24.542Z,63.26
2023-01-09T22:14:55.252Z,62.11
2023-01-09T22:17:25.853Z,63.14
2023-01-09T22:19:56.604Z,64.58
2023-01-09T22:22:27.326Z,65.59
2023-01-09T22:24:58.050Z,66.14
2023-01-09T22:27:28.921Z,67.05
2023-01-09T22:29:59.663Z,66.93
2023-01-09T22:32:30.969Z,67.83
2023-01-09T22:35:01.613Z,68.72
2023-01-09T22:37:33.007Z,70.23
2023-01-09T22:40:03.704Z,68.97
2023-01-09T22:42:34.410Z,66.29
2023-01-09T22:45:05.103Z,65.08
2023-01-09T22:47:36.047Z,63.62
2023-01-09T22:50:07.283Z,63.67
2023-01-09T22:52:37.997Z,65.13
2023-01-09T22:55:10.202Z,66.18
2023-01-09T22:57:41.082Z,67.98
2023-01-09T23:00:12.532Z,67.48
2023-01-09T23:02:43.241Z,69.22
2023-01-09T23:05:13.991Z,69.15
2023-01-09T23:07:45.032Z,69.58
2023-01-09T23:10:15.968Z,69.57
2023-01-09T23:12:49.867Z,70.02
2023-01-09T23:15:20.445Z,69.84
2023-01-09T23:17:51.227Z,69.55
2023-01-09T23:20:21.821Z,70.11
2023-01-09T23:22:52.516Z,70.24
2023-01-09T23:25:23.417Z,70.50
2023-01-09T23:27:54.115Z,70.39
2023-01-09T23:30:24.855Z,70.10
2023-01-09T23:32:55.452Z,70.44
2023-01-09T23:35:26.133Z,70.45
2023-01-09T23:37:57.218Z,70.44
2023-01-09T23:40:28.161Z,70.54
2023-01-09T23:43:11.758Z,71.69
2023-01-09T23:45:42.433Z,73.36
2023-01-09T23:48:14.264Z,74.00
2023-01-09T23:50:46.256Z,73.97
2023-01-09T23:53:17.114Z,74.24
2023-01-09T23:55:48.004Z,74.74
2023-01-09T23:58:18.799Z,74.97
